createdAt,value
2022-11-28T00:00:15.283Z,0.51
2022-11-28T00:01:21.959Z,0.49
2022-11-28T00:02:23.595Z,0.45
2022-11-28T00:03:25.241Z,0.36
2022-11-28T00:04:27.008Z,0.46
2022-11-28T00:05:28.503Z,0.52
2022-11-28T00:06:30.458Z,0.53
2022-11-28T00:07:32.172Z,0.74
2022-11-28T00:08:34.768Z,0.87
2022-11-28T00:09:36.323Z,0.98
2022-11-28T00:10:39.106Z,1.01
2022-11-28T00:11:42.224Z,1.00
2022-11-28T00:12:43.733Z,0.95
2022-11-28T00:13:46.141Z,0.86
2022-11-28T00:14:47.728Z,0.84
2022-11-28T00:15:55.253Z,0.83
2022-11-28T00:16:58.114Z,0.76
2022-11-28T00:17:59.659Z,0.87
2022-11-28T00:19:02.100Z,0.85
2022-11-28T00:20:04.580Z,0.74
2022-11-28T00:21:08.729Z,0.62
2022-11-28T00:22:10.301Z,0.62
2022-11-28T00:23:11.822Z,0.54
2022-11-28T00:24:13.420Z,0.63
2022-11-28T00:25:15.025Z,0.91
2022-11-28T00:26:19.454Z,0.90
2022-11-28T00:27:21.284Z,0.99
2022-11-28T00:28:22.819Z,1.07
2022-11-28T00:29:24.351Z,1.04
2022-11-28T00:30:25.894Z,0.78
2022-11-28T00:31:33.176Z,0.79
2022-11-28T00:32:36.255Z,1.02
2022-11-28T00:33:37.851Z,1.12
2022-11-28T00:34:39.552Z,0.98
2022-11-28T00:35:41.302Z,1.02
2022-11-28T00:36:44.945Z,1.03
2022-11-28T00:37:46.458Z,0.99
2022-11-28T00:38:48.412Z,0.79
2022-11-28T00:39:50.142Z,0.77
2022-11-28T00:40:58.552Z,0.80
2022-11-28T00:42:00.087Z,0.51
2022-11-28T00:43:01.622Z,0.30
2022-11-28T00:44:03.356Z,0.26
2022-11-28T00:45:05.328Z,0.15
2022-11-28T00:46:07.364Z,-0.18
2022-11-28T00:47:08.985Z,-0.15
2022-11-28T00:48:11.931Z,0.02
2022-11-28T00:49:13.516Z,-0.09
2022-11-28T00:50:15.122Z,-0.32
2022-11-28T00:51:18.831Z,-0.10
2022-11-28T00:52:20.367Z,-0.19
2022-11-28T00:53:22.185Z,-0.04
2022-11-28T00:54:23.776Z,0.26
2022-11-28T00:55:25.347Z,0.28
2022-11-28T00:56:28.917Z,0.22
2022-11-28T00:57:30.459Z,0.28
2022-11-28T00:58:32.575Z,0.41
2022-11-28T00:59:34.099Z,0.45
2022-11-28T01:00:36.311Z,0.28
2022-11-28T01:01:40.169Z,0.13
2022-11-28T01:02:41.903Z,0.09
2022-11-28T01:03:45.725Z,0.46
2022-11-28T01:04:47.278Z,0.39
2022-11-28T01:05:48.801Z,0.49
2022-11-28T01:06:50.459Z,0.37
2022-11-28T01:07:52.390Z,0.37
2022-11-28T01:08:54.708Z,0.41
2022-11-28T01:09:56.276Z,0.50
2022-11-28T01:10:57.889Z,0.63
2022-11-28T01:11:59.491Z,0.68
2022-11-28T01:13:01.031Z,0.67
2022-11-28T01:14:03.004Z,0.74
2022-11-28T01:15:05.105Z,0.67
2022-11-28T01:16:07.229Z,0.76
2022-11-28T01:17:08.765Z,0.79
2022-11-28T01:18:10.287Z,0.82
2022-11-28T01:19:13.513Z,0.75
2022-11-28T01:20:15.247Z,0.99
2022-11-28T01:21:17.245Z,1.02
2022-11-28T01:22:18.786Z,1.10
2022-11-28T01:23:20.329Z,1.17
2022-11-28T01:24:21.868Z,1.14
2022-11-28T01:25:23.394Z,0.81
2022-11-28T01:26:28.171Z,0.81
2022-11-28T01:27:32.528Z,1.00
2022-11-28T01:28:34.333Z,1.06
2022-11-28T01:29:35.842Z,1.13
2022-11-28T01:30:37.395Z,1.13
2022-11-28T01:31:39.519Z,1.23
2022-11-28T01:32:41.128Z,1.21
2022-11-28T01:33:43.118Z,1.11
2022-11-28T01:34:46.021Z,0.87
2022-11-28T01:35:55.192Z,0.79
2022-11-28T01:36:56.733Z,0.29
2022-11-28T01:37:58.221Z,0.26
2022-11-28T01:38:59.769Z,0.58
2022-11-28T01:40:01.315Z,0.82
2022-11-28T01:41:03.512Z,0.92
2022-11-28T01:42:05.162Z,1.01
2022-11-28T01:43:09.651Z,1.13
2022-11-28T01:44:44.802Z,1.21
2022-11-28T01:45:46.482Z,1.23
2022-11-28T01:46:48.159Z,1.22
2022-11-28T01:47:53.526Z,1.13
2022-11-28T01:48:57.485Z,1.26
2022-11-28T01:50:00.807Z,1.25
2022-11-28T01:51:06.182Z,1.29
2022-11-28T01:52:11.946Z,1.32
2022-11-28T01:53:13.978Z,1.20
2022-11-28T01:54:18.623Z,1.31
2022-11-28T01:55:24.486Z,1.25
2022-11-28T01:56:28.702Z,1.20
2022-11-28T01:57:30.489Z,1.17
2022-11-28T01:58:34.631Z,1.26
2022-11-28T01:59:39.311Z,1.24
2022-11-28T02:00:40.883Z,1.21
2022-11-28T02:01:45.254Z,1.16
2022-11-28T02:02:48.830Z,1.33
2022-11-28T02:03:51.268Z,1.36
2022-11-28T02:04:53.314Z,1.33
2022-11-28T02:05:56.955Z,1.21
2022-11-28T02:06:58.509Z,1.20
2022-11-28T02:08:00.192Z,1.30
2022-11-28T02:09:01.861Z,1.27
2022-11-28T02:10:06.493Z,1.29
2022-11-28T02:11:32.904Z,1.31
2022-11-28T02:12:59.410Z,1.35
2022-11-28T02:14:14.211Z,1.24
2022-11-28T02:15:37.649Z,1.38
2022-11-28T02:16:55.181Z,1.28
2022-11-28T02:18:44.990Z,1.14
2022-11-28T02:20:19.055Z,1.17
2022-11-28T02:21:41.842Z,1.30
2022-11-28T02:22:48.198Z,1.42
2022-11-28T02:24:06.032Z,1.47
2022-11-28T02:25:26.368Z,1.35
2022-11-28T02:26:44.787Z,1.09
2022-11-28T02:28:22.306Z,1.22
2022-11-28T02:29:56.283Z,1.24
2022-11-28T02:31:12.686Z,1.01
2022-11-28T02:32:25.229Z,1.12
2022-11-28T02:33:31.837Z,1.23
2022-11-28T02:34:46.890Z,1.36
2022-11-28T02:36:05.036Z,1.46
2022-11-28T02:37:09.546Z,1.44
2022-11-28T02:38:20.610Z,1.47
2022-11-28T02:39:31.455Z,1.51
2022-11-28T02:40:38.512Z,1.44
2022-11-28T02:41:45.436Z,1.49
2022-11-28T02:42:58.542Z,1.52
2022-11-28T02:44:09.969Z,1.40
2022-11-28T02:45:14.847Z,1.34
2022-11-28T02:46:22.891Z,1.20
2022-11-28T02:47:30.148Z,1.03
2022-11-28T02:48:37.991Z,0.95
2022-11-28T02:49:47.152Z,0.78
2022-11-28T02:50:55.610Z,0.75
2022-11-28T02:52:01.578Z,0.89
2022-11-28T02:53:07.291Z,1.11
2022-11-28T02:54:11.853Z,1.28
2022-11-28T02:55:14.393Z,1.04
2022-11-28T02:56:16.317Z,0.82
2022-11-28T02:57:36.770Z,0.86
2022-11-28T02:58:38.583Z,1.08
2022-11-28T02:59:49.104Z,0.93
2022-11-28T03:00:51.790Z,1.08
2022-11-28T03:01:53.430Z,1.16
2022-11-28T03:03:15.615Z,1.27
2022-11-28T03:04:23.795Z,1.24
2022-11-28T03:05:31.352Z,1.30
2022-11-28T03:06:43.593Z,1.39
2022-11-28T03:08:00.642Z,1.42
2022-11-28T03:09:21.269Z,1.21
2022-11-28T03:10:29.460Z,1.13
2022-11-28T03:11:46.531Z,0.95
2022-11-28T03:12:56.084Z,0.87
2022-11-28T03:14:08.140Z,0.95
2022-11-28T03:15:12.176Z,0.92
2022-11-28T03:16:23.266Z,0.74
2022-11-28T03:17:32.566Z,1.01
2022-11-28T03:18:39.483Z,1.06
2022-11-28T03:19:44.551Z,1.26
2022-11-28T03:20:48.268Z,1.12
2022-11-28T03:21:58.942Z,0.96
2022-11-28T03:23:13.172Z,1.12
2022-11-28T03:24:19.803Z,1.28
2022-11-28T03:25:28.461Z,1.26
2022-11-28T03:26:36.951Z,1.20
2022-11-28T03:27:44.956Z,1.21
2022-11-28T03:28:54.290Z,1.05
2022-11-28T03:29:59.554Z,0.99
2022-11-28T03:31:05.056Z,0.76
2022-11-28T03:32:10.746Z,0.71
2022-11-28T03:33:23.798Z,0.88
2022-11-28T03:34:31.846Z,0.98
2022-11-28T03:35:39.505Z,1.14
2022-11-28T03:36:44.805Z,0.94
2022-11-28T03:37:50.937Z,0.91
2022-11-28T03:38:56.599Z,0.88
2022-11-28T03:40:02.727Z,0.79
2022-11-28T03:41:10.769Z,0.65
2022-11-28T03:42:16.593Z,0.68
2022-11-28T03:43:22.595Z,0.52
2022-11-28T03:44:28.985Z,0.65
2022-11-28T03:45:38.414Z,0.51
2022-11-28T03:46:45.674Z,0.52
2022-11-28T03:47:52.355Z,0.54
2022-11-28T03:48:58.584Z,0.45
2022-11-28T03:50:07.189Z,0.37
2022-11-28T03:51:14.388Z,0.35
2022-11-28T03:52:22.951Z,0.33
2022-11-28T03:53:28.087Z,0.36
2022-11-28T03:54:35.117Z,0.39
2022-11-28T03:55:43.416Z,0.49
2022-11-28T03:56:53.135Z,0.38
2022-11-28T03:58:00.047Z,0.36
2022-11-28T03:59:06.863Z,0.14
2022-11-28T04:00:11.184Z,0.13
2022-11-28T04:01:26.888Z,0.28
2022-11-28T04:02:34.164Z,0.46
2022-11-28T04:03:45.443Z,0.68
2022-11-28T04:04:55.612Z,0.86
2022-11-28T04:06:02.542Z,0.64
2022-11-28T04:07:12.535Z,0.45
2022-11-28T04:08:17.875Z,0.69
2022-11-28T04:09:30.746Z,0.79
2022-11-28T04:10:36.350Z,0.92
2022-11-28T04:11:42.010Z,0.93
2022-11-28T04:12:52.714Z,0.97
2022-11-28T04:13:59.873Z,1.06
2022-11-28T04:15:08.292Z,1.14
2022-11-28T04:16:17.340Z,1.19
2022-11-28T04:17:25.194Z,1.08
2022-11-28T04:18:30.807Z,1.17
2022-11-28T04:19:38.200Z,1.09
2022-11-28T04:20:45.016Z,0.78
2022-11-28T04:21:55.140Z,0.61
2022-11-28T04:23:01.014Z,0.75
2022-11-28T04:24:05.773Z,0.76
2022-11-28T04:25:12.301Z,0.66
2022-11-28T04:26:17.201Z,0.56
2022-11-28T04:27:23.004Z,0.60
2022-11-28T04:28:26.997Z,0.59
2022-11-28T04:29:33.549Z,0.73
2022-11-28T04:30:38.336Z,0.82
2022-11-28T04:31:43.502Z,1.03
2022-11-28T04:32:49.905Z,0.72
2022-11-28T04:33:56.125Z,0.94
2022-11-28T04:35:01.787Z,1.07
2022-11-28T04:36:05.140Z,1.07
2022-11-28T04:37:10.261Z,0.66
2022-11-28T04:38:13.235Z,0.47
2022-11-28T04:39:18.364Z,0.70
2022-11-28T04:40:22.664Z,0.87
2022-11-28T04:41:28.668Z,0.99
2022-11-28T04:42:34.963Z,1.06
2022-11-28T04:43:41.591Z,1.14
2022-11-28T04:44:49.126Z,1.07
2022-11-28T04:45:54.675Z,0.95
2022-11-28T04:46:57.683Z,0.89
2022-11-28T04:48:02.719Z,0.88
2022-11-28T04:49:04.267Z,0.79
2022-11-28T04:50:07.221Z,0.68
2022-11-28T04:51:19.196Z,0.60
2022-11-28T04:52:29.385Z,0.42
2022-11-28T04:53:35.487Z,0.52
2022-11-28T04:54:43.093Z,0.86
2022-11-28T04:55:48.737Z,0.85
2022-11-28T04:56:55.104Z,0.51
2022-11-28T04:58:03.102Z,0.47
2022-11-28T04:59:06.323Z,0.65
2022-11-28T05:00:10.995Z,0.72
2022-11-28T05:01:18.530Z,0.76
2022-11-28T05:02:21.706Z,0.77
2022-11-28T05:03:27.666Z,0.84
2022-11-28T05:04:29.274Z,0.90
2022-11-28T05:05:30.965Z,0.95
2022-11-28T05:06:34.657Z,0.82
2022-11-28T05:07:37.656Z,0.55
2022-11-28T05:08:39.197Z,0.52
2022-11-28T05:09:40.709Z,0.72
2022-11-28T05:10:42.301Z,0.90
2022-11-28T05:11:43.849Z,0.94
2022-11-28T05:12:45.641Z,1.06
2022-11-28T05:13:47.411Z,1.01
2022-11-28T05:14:48.932Z,0.68
2022-11-28T05:15:50.573Z,0.80
2022-11-28T05:16:52.164Z,0.91
2022-11-28T05:17:53.777Z,1.06
2022-11-28T05:18:55.345Z,1.05
2022-11-28T05:19:57.135Z,1.06
2022-11-28T05:20:58.717Z,1.07
2022-11-28T05:22:00.227Z,1.06
2022-11-28T05:23:03.111Z,1.14
2022-11-28T05:24:05.154Z,1.14
2022-11-28T05:25:07.365Z,1.03
2022-11-28T05:26:10.479Z,1.15
2022-11-28T05:27:11.996Z,1.17
2022-11-28T05:28:13.512Z,1.04
2022-11-28T05:29:15.048Z,1.06
2022-11-28T05:30:16.801Z,1.14
2022-11-28T05:31:20.314Z,1.21
2022-11-28T05:32:24.894Z,1.26
2022-11-28T05:33:26.752Z,1.30
2022-11-28T05:34:28.290Z,1.31
2022-11-28T05:35:45.092Z,1.34
2022-11-28T05:36:46.605Z,1.38
2022-11-28T05:37:48.116Z,1.33
2022-11-28T05:38:50.965Z,1.26
2022-11-28T05:39:52.499Z,1.15
2022-11-28T05:40:54.031Z,1.13
2022-11-28T05:41:56.135Z,1.21
2022-11-28T05:42:57.891Z,1.19
2022-11-28T05:44:05.713Z,1.20
2022-11-28T05:45:08.640Z,1.12
2022-11-28T05:46:10.941Z,1.13
2022-11-28T05:47:13.350Z,1.25
2022-11-28T05:48:14.879Z,1.17
2022-11-28T05:49:16.439Z,1.16
2022-11-28T05:50:17.996Z,1.22
2022-11-28T05:51:21.252Z,1.11
2022-11-28T05:52:23.406Z,1.23
2022-11-28T05:53:26.052Z,1.35
2022-11-28T05:54:28.971Z,1.38
2022-11-28T05:55:30.528Z,1.40
2022-11-28T05:56:32.291Z,1.38
2022-11-28T05:57:33.824Z,1.36
2022-11-28T05:58:35.538Z,1.35
2022-11-28T05:59:37.328Z,1.37
2022-11-28T06:00:39.273Z,1.35
2022-11-28T06:01:40.833Z,1.31
2022-11-28T06:02:42.368Z,1.32
2022-11-28T06:03:44.486Z,1.43
2022-11-28T06:04:46.104Z,1.41
2022-11-28T06:05:47.798Z,1.36
2022-11-28T06:06:50.357Z,1.36
2022-11-28T06:07:52.189Z,1.48
2022-11-28T06:08:54.245Z,1.43
2022-11-28T06:09:57.215Z,1.43
2022-11-28T06:10:59.394Z,1.39
2022-11-28T06:12:00.958Z,1.31
2022-11-28T06:13:17.848Z,1.37
2022-11-28T06:14:19.416Z,1.23
2022-11-28T06:15:20.989Z,1.29
2022-11-28T06:16:24.398Z,1.21
2022-11-28T06:17:25.968Z,1.34
2022-11-28T06:18:27.528Z,1.34
2022-11-28T06:19:29.047Z,1.46
2022-11-28T06:20:30.612Z,1.39
2022-11-28T06:21:32.926Z,1.50
2022-11-28T06:22:34.613Z,1.42
2022-11-28T06:23:37.167Z,1.50
2022-11-28T06:24:38.699Z,1.57
2022-11-28T06:25:41.612Z,1.58
2022-11-28T06:26:43.184Z,1.60
2022-11-28T06:27:44.762Z,1.53
2022-11-28T06:28:46.696Z,1.60
2022-11-28T06:29:48.209Z,1.66
2022-11-28T06:30:49.712Z,1.60
2022-11-28T06:31:51.302Z,1.64
2022-11-28T06:32:53.958Z,1.69
2022-11-28T06:33:55.757Z,1.49
2022-11-28T06:34:57.295Z,1.61
2022-11-28T06:35:59.810Z,1.65
2022-11-28T06:37:01.315Z,1.64
2022-11-28T06:38:02.887Z,1.57
2022-11-28T06:39:04.489Z,1.60
2022-11-28T06:40:07.192Z,1.62
2022-11-28T06:41:20.246Z,1.56
2022-11-28T06:42:21.770Z,1.62
2022-11-28T06:43:23.464Z,1.58
2022-11-28T06:44:24.971Z,1.58
2022-11-28T06:45:26.535Z,1.56
2022-11-28T06:46:28.145Z,1.53
2022-11-28T06:47:29.673Z,1.40
2022-11-28T06:48:31.264Z,1.46
2022-11-28T06:49:32.795Z,1.58
2022-11-28T06:50:34.329Z,1.63
2022-11-28T06:51:35.876Z,1.56
2022-11-28T06:52:42.422Z,1.52
2022-11-28T06:53:43.955Z,1.49
2022-11-28T06:54:45.451Z,1.47
2022-11-28T06:55:47.246Z,1.50
2022-11-28T06:56:50.093Z,1.47
2022-11-28T06:57:51.618Z,1.51
2022-11-28T06:58:55.013Z,1.44
2022-11-28T06:59:56.506Z,1.45
2022-11-28T07:00:58.136Z,1.41
2022-11-28T07:02:04.218Z,1.30
2022-11-28T07:03:08.594Z,1.28
2022-11-28T07:04:10.277Z,1.30
2022-11-28T07:05:11.790Z,1.11
2022-11-28T07:06:14.845Z,1.27
2022-11-28T07:07:21.653Z,1.15
2022-11-28T07:08:23.283Z,1.05
2022-11-28T07:09:24.913Z,0.87
2022-11-28T07:10:27.503Z,0.98
2022-11-28T07:11:31.258Z,0.92
2022-11-28T07:12:34.152Z,0.93
2022-11-28T07:13:35.821Z,0.75
2022-11-28T07:14:37.336Z,0.80
2022-11-28T07:15:38.895Z,0.90
2022-11-28T07:16:40.422Z,0.82
2022-11-28T07:17:41.933Z,0.89
2022-11-28T07:18:43.639Z,0.82
2022-11-28T07:19:48.164Z,0.87
2022-11-28T07:20:52.107Z,0.91
2022-11-28T07:21:53.617Z,0.85
2022-11-28T07:22:55.106Z,0.81
2022-11-28T07:23:58.490Z,0.83
2022-11-28T07:25:00.027Z,0.96
2022-11-28T07:26:02.990Z,1.09
2022-11-28T07:27:04.541Z,1.06
2022-11-28T07:28:07.506Z,1.11
2022-11-28T07:29:10.705Z,1.23
2022-11-28T07:30:12.722Z,1.22
2022-11-28T07:31:16.929Z,1.14
2022-11-28T07:32:18.491Z,1.04
2022-11-28T07:33:20.028Z,1.13
2022-11-28T07:34:21.542Z,1.11
2022-11-28T07:35:23.040Z,1.07
2022-11-28T07:36:26.513Z,1.04
2022-11-28T07:37:28.002Z,1.15
2022-11-28T07:38:29.662Z,1.07
2022-11-28T07:39:31.214Z,1.12
2022-11-28T07:40:32.794Z,1.21
2022-11-28T07:41:34.751Z,1.00
2022-11-28T07:42:36.263Z,1.23
2022-11-28T07:43:39.249Z,1.27
2022-11-28T07:44:40.779Z,1.26
2022-11-28T07:46:00.072Z,1.19
2022-11-28T07:47:03.139Z,1.28
2022-11-28T07:48:04.797Z,1.15
2022-11-28T07:49:06.385Z,1.21
2022-11-28T07:50:09.035Z,1.22
2022-11-28T07:51:12.993Z,1.03
2022-11-28T07:52:14.574Z,1.09
2022-11-28T07:53:16.086Z,1.04
2022-11-28T07:54:17.641Z,1.09
2022-11-28T07:55:19.154Z,1.07
2022-11-28T07:56:23.568Z,1.15
2022-11-28T07:57:25.128Z,1.03
2022-11-28T07:58:26.620Z,0.84
2022-11-28T07:59:29.507Z,0.84
2022-11-28T08:00:31.480Z,0.91
2022-11-28T08:01:34.721Z,0.92
2022-11-28T08:02:38.468Z,0.87
2022-11-28T08:03:40.228Z,0.96
2022-11-28T08:04:47.755Z,0.92
2022-11-28T08:05:50.128Z,1.00
2022-11-28T08:06:51.652Z,0.91
2022-11-28T08:07:53.180Z,0.85
2022-11-28T08:08:57.094Z,0.82
2022-11-28T08:09:58.589Z,0.87
2022-11-28T08:11:01.052Z,0.77
2022-11-28T08:12:02.576Z,0.83
2022-11-28T08:13:04.115Z,0.74
2022-11-28T08:14:06.100Z,0.83
2022-11-28T08:15:09.882Z,0.82
2022-11-28T08:16:13.967Z,0.74
2022-11-28T08:17:15.536Z,0.81
2022-11-28T08:18:17.113Z,0.84
2022-11-28T08:19:21.624Z,0.79
2022-11-28T08:20:26.175Z,1.02
2022-11-28T08:21:29.940Z,0.86
2022-11-28T08:22:31.452Z,0.98
2022-11-28T08:23:33.780Z,0.96
2022-11-28T08:24:35.329Z,0.99
2022-11-28T08:25:36.886Z,1.04
2022-11-28T08:26:38.687Z,0.99
2022-11-28T08:27:40.221Z,1.09
2022-11-28T08:28:42.740Z,1.10
2022-11-28T08:29:46.158Z,1.02
2022-11-28T08:30:52.098Z,1.06
2022-11-28T08:31:53.645Z,1.13
2022-11-28T08:32:55.162Z,1.08
2022-11-28T08:33:59.133Z,1.05
2022-11-28T08:35:00.635Z,1.21
2022-11-28T08:36:10.261Z,1.27
2022-11-28T08:37:11.767Z,1.12
2022-11-28T08:38:25.573Z,1.34
2022-11-28T08:39:27.074Z,1.39
2022-11-28T08:40:28.647Z,1.31
2022-11-28T08:41:30.180Z,1.35
2022-11-28T08:42:31.686Z,1.31
2022-11-28T08:43:34.507Z,1.41
2022-11-28T08:44:36.012Z,1.28
2022-11-28T08:45:38.094Z,1.17
2022-11-28T08:46:41.012Z,1.28
2022-11-28T08:47:42.589Z,1.13
2022-11-28T08:48:44.361Z,1.42
2022-11-28T08:49:46.227Z,1.34
2022-11-28T08:50:48.376Z,1.36
2022-11-28T08:51:49.936Z,1.39
2022-11-28T08:52:51.432Z,1.52
2022-11-28T08:53:59.155Z,1.35
2022-11-28T08:55:01.226Z,1.43
2022-11-28T08:56:02.779Z,1.47
2022-11-28T08:57:04.390Z,1.37
2022-11-28T08:58:05.859Z,1.45
2022-11-28T08:59:07.367Z,1.50
2022-11-28T09:00:09.859Z,1.57
2022-11-28T09:01:16.641Z,1.60
2022-11-28T09:02:23.209Z,1.62
2022-11-28T09:03:27.501Z,1.89
2022-11-28T09:04:29.161Z,1.31
2022-11-28T09:05:31.026Z,1.58
2022-11-28T09:06:32.538Z,1.60
2022-11-28T09:07:34.224Z,1.62
2022-11-28T09:08:35.814Z,1.44
2022-11-28T09:09:37.303Z,1.43
2022-11-28T09:10:40.060Z,1.58
2022-11-28T09:11:42.040Z,1.60
2022-11-28T09:12:43.558Z,1.47
2022-11-28T09:13:45.918Z,1.58
2022-11-28T09:14:47.498Z,1.57
2022-11-28T09:15:52.630Z,1.54
2022-11-28T09:16:55.212Z,1.62
2022-11-28T09:17:58.199Z,1.62
2022-11-28T09:18:59.728Z,1.56
2022-11-28T09:20:01.284Z,1.34
2022-11-28T09:21:05.470Z,1.51
2022-11-28T09:22:07.025Z,1.47
2022-11-28T09:23:08.996Z,1.54
2022-11-28T09:24:10.543Z,1.39
2022-11-28T09:25:12.064Z,1.46
2022-11-28T09:26:16.648Z,1.44
2022-11-28T09:27:18.165Z,1.40
2022-11-28T09:28:19.658Z,1.42
2022-11-28T09:29:21.174Z,1.39
2022-11-28T09:30:22.781Z,1.42
2022-11-28T09:31:24.350Z,1.54
2022-11-28T09:32:25.966Z,1.62
2022-11-28T09:33:28.992Z,1.46
2022-11-28T09:34:30.575Z,1.49
2022-11-28T09:35:32.088Z,1.73
2022-11-28T09:36:33.619Z,1.64
2022-11-28T09:37:35.173Z,1.68
2022-11-28T09:38:38.135Z,1.74
2022-11-28T09:39:57.317Z,1.76
2022-11-28T09:41:02.467Z,1.57
2022-11-28T09:42:12.377Z,1.88
2022-11-28T09:43:18.463Z,1.63
2022-11-28T09:44:24.258Z,1.71
2022-11-28T09:45:25.829Z,1.81
2022-11-28T09:46:31.395Z,1.90
2022-11-28T09:47:36.061Z,1.89
2022-11-28T09:48:44.777Z,1.79
2022-11-28T09:49:50.347Z,1.83
2022-11-28T09:50:55.903Z,1.77
2022-11-28T09:52:02.243Z,1.76
2022-11-28T09:53:15.132Z,1.69
2022-11-28T09:54:21.021Z,1.78
2022-11-28T09:55:31.946Z,1.55
2022-11-28T09:56:33.450Z,1.56
2022-11-28T09:57:39.561Z,1.63
2022-11-28T09:58:45.664Z,1.75
2022-11-28T09:59:47.333Z,1.71
2022-11-28T10:00:56.080Z,1.71
2022-11-28T10:02:09.551Z,1.71
2022-11-28T10:03:28.929Z,1.90
2022-11-28T10:04:40.771Z,1.65
2022-11-28T10:05:49.527Z,1.81
2022-11-28T10:06:59.104Z,1.84
2022-11-28T10:08:14.974Z,1.74
2022-11-28T10:09:31.300Z,1.75
2022-11-28T10:10:40.878Z,1.73
2022-11-28T10:11:54.826Z,1.65
2022-11-28T10:13:06.807Z,1.86
2022-11-28T10:14:22.771Z,1.81
2022-11-28T10:15:39.266Z,1.91
2022-11-28T10:16:50.993Z,1.93
2022-11-28T10:18:02.196Z,2.18
2022-11-28T10:19:25.644Z,2.20
2022-11-28T10:20:38.131Z,2.32
2022-11-28T10:21:44.443Z,2.41
2022-11-28T10:22:50.343Z,2.44
2022-11-28T10:23:57.552Z,2.55
2022-11-28T10:25:04.208Z,2.68
2022-11-28T10:26:09.066Z,2.32
2022-11-28T10:27:13.713Z,2.59
2022-11-28T10:28:21.594Z,2.61
2022-11-28T10:29:26.507Z,2.54
2022-11-28T10:30:33.104Z,2.63
2022-11-28T10:31:39.212Z,2.77
2022-11-28T10:32:44.977Z,2.79
2022-11-28T10:33:53.629Z,2.86
2022-11-28T10:35:00.214Z,2.95
2022-11-28T10:36:04.000Z,2.75
2022-11-28T10:37:10.619Z,2.83
2022-11-28T10:38:13.345Z,2.96
2022-11-28T10:39:14.859Z,3.03
2022-11-28T10:40:21.123Z,2.97
2022-11-28T10:41:28.079Z,3.02
2022-11-28T10:42:39.207Z,3.01
2022-11-28T10:43:45.751Z,3.01
2022-11-28T10:45:00.116Z,2.98
2022-11-28T10:46:21.807Z,3.01
2022-11-28T10:47:30.128Z,2.94
2022-11-28T10:48:41.169Z,2.77
2022-11-28T10:49:53.794Z,2.80
2022-11-28T10:51:06.435Z,2.91
2022-11-28T10:52:18.327Z,2.69
2022-11-28T10:53:37.389Z,2.88
2022-11-28T10:55:00.174Z,3.01
2022-11-28T10:56:13.182Z,3.09
2022-11-28T10:57:20.113Z,3.15
2022-11-28T10:58:25.602Z,3.17
2022-11-28T10:59:38.860Z,3.12
2022-11-28T11:00:43.307Z,2.96
2022-11-28T11:01:49.998Z,3.16
2022-11-28T11:02:53.380Z,3.07
2022-11-28T11:03:54.937Z,3.14
2022-11-28T11:04:56.788Z,3.10
2022-11-28T11:05:59.418Z,3.32
2022-11-28T11:07:16.151Z,3.42
2022-11-28T11:08:25.437Z,3.42
2022-11-28T11:09:27.223Z,3.42
2022-11-28T11:10:33.620Z,3.38
2022-11-28T11:11:40.353Z,3.54
2022-11-28T11:12:43.457Z,3.67
2022-11-28T11:13:58.533Z,3.71
2022-11-28T11:15:15.935Z,3.73
2022-11-28T11:16:17.534Z,3.75
2022-11-28T11:17:36.176Z,3.64
2022-11-28T11:18:51.828Z,3.82
2022-11-28T11:19:53.378Z,3.73
2022-11-28T11:21:08.255Z,3.68
2022-11-28T11:22:17.873Z,3.66
2022-11-28T11:23:22.824Z,3.85
2022-11-28T11:24:24.312Z,3.84
2022-11-28T11:25:28.099Z,3.95
2022-11-28T11:26:35.933Z,3.98
2022-11-28T11:27:37.721Z,4.05
2022-11-28T11:28:43.055Z,4.08
2022-11-28T11:29:46.069Z,4.10
2022-11-28T11:30:49.003Z,4.10
2022-11-28T11:31:52.177Z,4.14
2022-11-28T11:32:54.950Z,4.22
2022-11-28T11:34:03.323Z,4.09
2022-11-28T11:35:06.294Z,3.91
2022-11-28T11:36:22.350Z,3.92
2022-11-28T11:37:33.573Z,3.77
2022-11-28T11:38:38.178Z,3.95
2022-11-28T11:39:47.881Z,4.10
2022-11-28T11:40:50.782Z,4.04
2022-11-28T11:42:10.441Z,3.99
2022-11-28T11:43:24.909Z,4.10
2022-11-28T11:44:30.149Z,4.23
2022-11-28T11:45:33.585Z,4.25
2022-11-28T11:46:50.115Z,4.28
2022-11-28T11:47:51.722Z,4.41
2022-11-28T11:48:53.741Z,4.40
2022-11-28T11:50:03.676Z,4.39
2022-11-28T11:51:06.516Z,4.42
2022-11-28T11:52:17.125Z,4.36
2022-11-28T11:53:18.594Z,4.45
2022-11-28T11:54:21.416Z,4.52
2022-11-28T11:55:22.988Z,4.66
2022-11-28T11:56:24.772Z,4.73
2022-11-28T11:57:33.701Z,4.67
2022-11-28T11:58:43.594Z,4.82
2022-11-28T11:59:50.395Z,4.91
2022-11-28T12:00:56.021Z,4.77
2022-11-28T12:02:01.278Z,4.89
2022-11-28T12:03:10.991Z,4.95
2022-11-28T12:04:43.895Z,4.90
2022-11-28T12:06:13.398Z,4.98
2022-11-28T12:07:23.947Z,5.00
2022-11-28T12:08:33.262Z,4.94
2022-11-28T12:09:40.394Z,5.02
2022-11-28T12:10:48.132Z,5.10
2022-11-28T12:11:54.971Z,5.14
2022-11-28T12:12:57.073Z,5.19
2022-11-28T12:14:09.064Z,5.16
2022-11-28T12:15:21.472Z,5.19
2022-11-28T12:16:36.886Z,5.27
2022-11-28T12:17:49.612Z,5.35
2022-11-28T12:20:39.413Z,5.40
2022-11-28T12:21:54.481Z,5.41
2022-11-28T12:23:07.101Z,5.42
2022-11-28T12:24:13.186Z,5.37
2022-11-28T12:25:25.588Z,5.43
2022-11-28T12:26:33.610Z,5.35
2022-11-28T12:27:52.309Z,5.25
2022-11-28T12:29:09.351Z,5.09
2022-11-28T12:30:26.624Z,4.94
2022-11-28T12:31:43.499Z,4.88
2022-11-28T12:32:57.736Z,5.19
2022-11-28T12:34:14.799Z,5.03
2022-11-28T12:35:27.420Z,4.94
2022-11-28T12:36:32.922Z,4.79
2022-11-28T12:39:23.218Z,4.70
2022-11-28T12:40:35.543Z,4.76
2022-11-28T12:42:03.685Z,4.72
2022-11-28T12:43:37.992Z,4.84
2022-11-28T12:44:54.625Z,4.85
2022-11-28T12:46:03.318Z,4.67
2022-11-28T12:47:18.411Z,4.48
2022-11-28T12:48:41.677Z,4.66
2022-11-28T12:49:54.294Z,4.53
2022-11-28T12:51:00.966Z,4.61
2022-11-28T12:52:16.825Z,4.55
2022-11-28T12:53:37.461Z,4.44
2022-11-28T12:54:57.843Z,4.47
2022-11-28T12:56:09.826Z,4.61
2022-11-28T12:57:22.286Z,4.65
2022-11-28T12:58:29.588Z,4.61
2022-11-28T12:59:37.088Z,4.79
2022-11-28T13:00:50.531Z,4.87
2022-11-28T13:02:08.269Z,4.94
2022-11-28T13:03:24.048Z,4.76
2022-11-28T13:04:48.899Z,4.79
2022-11-28T13:06:02.244Z,4.87
2022-11-28T13:07:13.479Z,4.87
2022-11-28T13:08:48.665Z,4.88
2022-11-28T13:10:01.154Z,4.84
2022-11-28T13:11:19.115Z,4.72
2022-11-28T13:12:29.169Z,4.84
2022-11-28T13:13:34.929Z,4.85
2022-11-28T13:14:48.310Z,4.78
2022-11-28T13:16:02.524Z,4.72
2022-11-28T13:17:13.519Z,4.77
2022-11-28T13:18:29.587Z,4.77
2022-11-28T13:19:40.974Z,4.97
2022-11-28T13:20:45.595Z,5.18
2022-11-28T13:21:55.571Z,5.27
2022-11-28T13:23:12.850Z,5.25
2022-11-28T13:24:27.067Z,5.07
2022-11-28T13:25:35.795Z,5.23
2022-11-28T13:26:46.117Z,5.33
2022-11-28T13:27:55.422Z,5.44
2022-11-28T13:29:05.629Z,5.57
2022-11-28T13:30:17.100Z,5.63
2022-11-28T13:31:23.093Z,5.63
2022-11-28T13:32:31.093Z,5.63
2022-11-28T13:33:44.547Z,5.75
2022-11-28T13:34:46.998Z,5.85
2022-11-28T13:35:48.827Z,5.87
2022-11-28T13:38:48.267Z,5.75
2022-11-28T13:39:52.431Z,5.67
2022-11-28T13:41:00.412Z,5.79
2022-11-28T13:42:52.288Z,5.75
2022-11-28T13:43:47.031Z,5.45
2022-11-28T13:44:56.252Z,5.52
2022-11-28T13:45:57.931Z,5.72
2022-11-28T13:47:13.864Z,5.69
2022-11-28T13:49:20.176Z,5.36
2022-11-28T13:50:40.679Z,5.59
2022-11-28T13:51:42.367Z,5.19
2022-11-28T13:52:43.936Z,5.18
2022-11-28T13:53:46.898Z,5.33
2022-11-28T13:54:52.389Z,5.18
2022-11-28T13:56:21.992Z,5.22
2022-11-28T13:57:28.690Z,5.26
2022-11-28T13:58:34.993Z,5.36
2022-11-28T13:59:37.675Z,5.32
2022-11-28T14:00:39.768Z,5.32
2022-11-28T14:01:45.296Z,5.12
2022-11-28T14:02:49.982Z,5.07
2022-11-28T14:04:03.246Z,5.00
2022-11-28T14:05:14.861Z,4.99
2022-11-28T14:06:19.617Z,4.92
2022-11-28T14:07:26.793Z,4.77
2022-11-28T14:08:32.806Z,4.77
2022-11-28T14:09:44.703Z,4.71
2022-11-28T14:10:57.534Z,4.75
2022-11-28T14:12:19.820Z,4.71
2022-11-28T14:13:41.257Z,4.64
2022-11-28T14:15:06.669Z,4.63
2022-11-28T14:16:20.213Z,4.48
2022-11-28T14:17:53.582Z,4.39
2022-11-28T14:19:09.334Z,4.50
2022-11-28T14:20:20.087Z,4.38
2022-11-28T14:21:31.730Z,4.40
2022-11-28T14:22:46.498Z,4.39
2022-11-28T14:23:57.790Z,4.50
2022-11-28T14:25:07.480Z,4.55
2022-11-28T14:26:14.444Z,4.50
2022-11-28T14:27:20.218Z,4.71
2022-11-28T14:28:25.064Z,4.78
2022-11-28T14:29:35.946Z,4.62
2022-11-28T14:30:40.662Z,4.51
2022-11-28T14:32:06.552Z,4.58
2022-11-28T14:33:20.401Z,4.90
2022-11-28T14:34:40.422Z,4.88
2022-11-28T14:36:32.279Z,5.00
2022-11-28T14:37:49.688Z,5.00
2022-11-28T14:39:34.095Z,5.00
2022-11-28T14:41:06.105Z,4.97
2022-11-28T14:43:03.928Z,5.03
2022-11-28T14:44:36.749Z,4.99
2022-11-28T14:45:44.619Z,5.11
2022-11-28T14:47:05.190Z,5.02
2022-11-28T14:48:14.303Z,5.06
2022-11-28T14:49:22.395Z,4.94
2022-11-28T14:50:49.838Z,4.94
2022-11-28T14:52:37.873Z,4.88
2022-11-28T14:53:48.705Z,4.97